KONL/ONL METAR and TAF weather

Enter ICAO airport designator
Station Type Date Time Source
KONL METAR 2019/08/24 08:55 UTC NOAA

KONL 240855Z AUTO 15011G14KT 10SM SCT016 BKN026 OVC034 20/18 A3009 RMK AO2 LTG DSNT SW T02010175


Station Type Date Time Source
KONL Decoded METAR 2019/08/24 08:55 UTC NOAA

Station name not available
Aug 24, 2019 - 04:55 AM EDT / 2019.08.24 0855 UTC
Wind: from the SSE (150 degrees) at 13 MPH (11 KT) gusting to 16 MPH (14 KT):0
Visibility: 10 mile(s):0
Sky conditions: overcast
Weather: Lightning observed
Temperature: 68.2 F (20.1 C)
Dew Point: 63.5 F (17.5 C)
Relative Humidity: 84%
Pressure (altimeter): 30.09 in. Hg (1018 hPa)
ob: KONL 240855Z AUTO 15011G14KT 10SM SCT016 BKN026 OVC034 20/18 A3009 RMK AO2 LTG DSNT SW T02010175
cycle: 9

Station Type Date Time Source
KONL TAF UTC NOAA

Error!

Example: see airport list